Time;durP1;ratioP1;P1;durP2;ratioP2;P2;SDS_P1;SDS_P2;PMS_P1;PMS_P2;Temp;Humidity;BMP_temperature;BMP_pressure;BME280_temperature;BME280_humidity;BME280_pressure;Samples;Min_cycle;Max_cycle;Signal;HPM_P1;HPM_P2
2021/08/28 00:01:53;;;;;;;14.60;6.80;;;;;;;12.62;72.95;98674.29;112435;1200;96894;-71
2021/08/28 00:04:26;;;;;;;14.80;6.40;;;;;;;12.60;73.01;98670.57;112388;1203;111066;-70
2021/08/28 00:06:58;;;;;;;12.70;6.30;;;;;;;12.59;73.13;98668.91;112219;1205;97676;-70
2021/08/28 00:09:25;;;;;;;12.10;6.10;;;;;;;12.57;73.05;98667.63;112228;1205;106526;-71
2021/08/28 00:11:53;;;;;;;15.10;6.20;;;;;;;12.57;73.09;98669.99;112226;1205;97787;-71
2021/08/28 00:14:25;;;;;;;14.50;6.20;;;;;;;12.56;73.22;98672.02;112217;1198;96963;-69
2021/08/28 00:16:53;;;;;;;14.90;5.80;;;;;;;12.53;73.19;98670.34;112216;1204;111960;-72
2021/08/28 00:19:24;;;;;;;13.80;6.10;;;;;;;12.49;73.09;98676.27;112256;1205;95137;-72
2021/08/28 00:21:52;;;;;;;13.00;6.00;;;;;;;12.46;73.15;98678.88;112276;1205;107192;-73
2021/08/28 00:24:20;;;;;;;14.40;5.90;;;;;;;12.43;73.10;98680.10;112263;1205;97613;-72
2021/08/28 00:26:47;;;;;;;14.80;6.00;;;;;;;12.40;73.12;98677.67;112242;1200;95040;-73
2021/08/28 00:29:15;;;;;;;13.20;6.30;;;;;;;12.37;73.05;98685.21;112235;1205;111149;-68
2021/08/28 00:31:43;;;;;;;12.60;6.10;;;;;;;12.35;73.24;98686.08;112264;1205;97638;-72
2021/08/28 00:34:15;;;;;;;14.80;6.60;;;;;;;12.34;73.20;98687.74;112159;1205;107453;-72
2021/08/28 00:36:43;;;;;;;13.70;6.40;;;;;;;12.30;73.16;98685.77;112203;1196;95074;-71
2021/08/28 00:39:10;;;;;;;13.50;6.20;;;;;;;12.27;73.27;98687.27;112233;1205;97853;-71
2021/08/28 00:41:38;;;;;;;13.60;6.10;;;;;;;12.25;73.18;98687.66;112228;1205;111224;-72
2021/08/28 00:44:08;;;;;;;16.00;6.60;;;;;;;12.23;73.32;98684.82;112239;1205;97675;-72
2021/08/28 00:46:36;;;;;;;16.60;7.30;;;;;;;12.21;73.20;98686.02;112120;1205;107569;-69
2021/08/28 00:49:04;;;;;;;14.30;7.00;;;;;;;12.19;73.34;98686.22;112236;1205;98013;-71
2021/08/28 00:51:38;;;;;;;16.90;7.00;;;;;;;12.18;73.37;98690.52;112254;1200;96504;-70
2021/08/28 00:54:10;;;;;;;15.70;7.10;;;;;;;12.18;73.46;98691.73;112228;1204;111130;-71
2021/08/28 00:56:43;;;;;;;13.50;6.70;;;;;;;12.18;73.41;98689.32;112255;1205;97576;-72
2021/08/28 00:59:11;;;;;;;17.30;7.70;;;;;;;12.16;73.43;98690.20;112181;1204;107513;-73
2021/08/28 01:01:44;;;;;;;14.20;6.50;;;;;;;12.13;73.39;98688.49;112211;1200;97773;-71
2021/08/28 01:04:23;;;;;;;14.80;6.50;;;;;;;12.11;73.51;98689.75;112242;1198;97670;-71
2021/08/28 01:06:59;;;;;;;15.30;6.70;;;;;;;12.09;73.61;98690.08;112314;1204;111144;-71
2021/08/28 01:09:37;;;;;;;14.70;6.80;;;;;;;12.09;73.68;98687.55;112308;1200;97724;-71
2021/08/28 01:12:18;;;;;;;14.50;6.30;;;;;;;12.10;73.70;98687.30;112320;1206;105731;-72
2021/08/28 01:14:54;;;;;;;17.80;7.00;;;;;;;12.09;73.48;98687.27;112348;1204;97750;-71
2021/08/28 01:17:27;;;;;;;14.00;6.50;;;;;;;12.05;73.56;98688.39;112313;1202;97613;-72
2021/08/28 01:20:20;;;;;;;15.20;7.00;;;;;;;12.04;73.57;98687.27;112302;1205;111122;-71
2021/08/28 01:22:54;;;;;;;14.90;6.50;;;;;;;12.01;73.54;98687.20;112254;1200;97666;-73
2021/08/28 01:25:27;;;;;;;16.30;7.10;;;;;;;11.99;73.75;98688.06;112328;1204;107362;-72
2021/08/28 01:28:24;;;;;;;13.70;7.20;;;;;;;11.97;73.72;98686.91;112210;1204;97591;-71
2021/08/28 01:30:56;;;;;;;13.30;6.10;;;;;;;11.96;73.67;98692.93;112340;1196;97606;-73
2021/08/28 01:33:28;;;;;;;17.10;7.10;;;;;;;11.93;73.61;98693.47;112391;1204;110948;-74
2021/08/28 01:36:00;;;;;;;15.50;7.50;;;;;;;11.91;73.73;98691.86;112405;1204;97567;-72
2021/08/28 01:38:32;;;;;;;14.80;7.00;;;;;;;11.89;73.73;98696.81;112377;1205;107462;-70
2021/08/28 01:41:04;;;;;;;15.00;6.80;;;;;;;11.87;73.69;98700.39;112311;1198;97592;-71
2021/08/28 01:43:37;;;;;;;17.10;7.90;;;;;;;11.84;73.73;98700.27;112273;1200;98284;-71
2021/08/28 01:46:06;;;;;;;15.20;7.00;;;;;;;11.82;73.70;98702.60;112151;1203;111110;-70
2021/08/28 01:48:36;;;;;;;21.40;7.70;;;;;;;11.80;73.82;98699.36;112179;1200;97637;-72
2021/08/28 01:51:08;;;;;;;18.70;7.60;;;;;;;11.78;73.74;98704.92;112384;1204;107141;-73
2021/08/28 01:53:35;;;;;;;16.00;7.30;;;;;;;11.74;73.82;98704.66;112316;1204;97514;-68
2021/08/28 01:56:07;;;;;;;17.10;7.60;;;;;;;11.72;73.84;98698.60;112358;1200;97745;-70
2021/08/28 01:58:35;;;;;;;18.00;8.10;;;;;;;11.70;73.87;98697.70;112285;1200;111013;-71
2021/08/28 02:01:03;;;;;;;17.30;8.10;;;;;;;11.69;73.98;98702.45;112271;1196;97596;-68
2021/08/28 02:03:35;;;;;;;15.20;7.60;;;;;;;11.68;73.98;98700.73;112254;1204;107461;-69
2021/08/28 02:06:25;;;;;;;19.30;8.90;;;;;;;11.67;73.98;98704.21;112286;1198;97620;-71
2021/08/28 02:09:01;;;;;;;17.40;8.50;;;;;;;11.64;73.99;98703.70;112356;1196;97669;-73
2021/08/28 02:11:52;;;;;;;17.30;8.20;;;;;;;11.62;74.00;98704.20;112400;1196;111078;-72
2021/08/28 02:14:38;;;;;;;17.90;8.30;;;;;;;11.62;74.04;98708.52;113392;1196;97671;-73
2021/08/28 02:17:12;;;;;;;18.20;7.70;;;;;;;11.59;74.02;98704.64;112352;1204;108222;-71
2021/08/28 02:19:46;;;;;;;;;;;;;;;11.58;74.00;98702.29;112343;1200;97558;-71
2021/08/28 02:22:19;;;;;;;17.60;8.50;;;;;;;11.54;74.09;98703.32;112289;1197;96460;-72
2021/08/28 02:24:53;;;;;;;18.30;7.90;;;;;;;11.51;74.03;98700.16;112243;1204;111153;-71
2021/08/28 02:27:29;;;;;;;;;;;;;;;11.49;74.02;98701.42;113442;1196;95761;-71
2021/08/28 02:30:13;;;;;;;16.40;7.50;;;;;;;11.43;74.10;98706.08;113090;1195;107606;-71
2021/08/28 02:32:47;;;;;;;19.00;8.20;;;;;;;11.42;74.13;98706.75;112304;1204;97670;-70
2021/08/28 02:35:15;;;;;;;19.50;8.40;;;;;;;11.41;74.09;98710.41;112290;1200;97680;-71
2021/08/28 02:37:44;;;;;;;18.80;8.40;;;;;;;11.39;74.22;98715.19;112272;1203;111206;-72
2021/08/28 02:40:17;;;;;;;19.30;9.10;;;;;;;11.38;74.09;98719.38;112254;1204;94963;-71
2021/08/28 02:42:49;;;;;;;18.70;8.60;;;;;;;11.35;74.10;98718.49;112170;1196;107474;-71
2021/08/28 02:45:26;;;;;;;18.10;8.60;;;;;;;11.34;74.17;98720.16;112259;1197;97558;-71
2021/08/28 02:47:55;;;;;;;19.90;9.20;;;;;;;11.32;74.16;98717.66;112284;1197;98122;-70
2021/08/28 02:50:28;;;;;;;18.50;8.20;;;;;;;11.30;74.24;98717.15;112510;1196;111159;-72
2021/08/28 02:53:02;;;;;;;17.30;8.50;;;;;;;11.29;74.21;98717.92;112170;1204;97580;-71
2021/08/28 02:55:36;;;;;;;17.50;8.70;;;;;;;11.27;74.32;98714.90;112338;1196;107443;-72
2021/08/28 02:58:04;;;;;;;17.10;8.40;;;;;;;11.27;74.35;98716.66;112271;1196;98136;-70
2021/08/28 03:00:36;;;;;;;17.60;8.80;;;;;;;11.26;74.43;98714.05;113025;1196;97589;-70
2021/08/28 03:03:08;;;;;;;19.90;8.50;;;;;;;11.26;74.43;98716.17;112398;1204;111256;-72
2021/08/28 03:05:41;;;;;;;18.80;8.70;;;;;;;11.26;74.35;98720.80;112338;1197;97886;-71
2021/08/28 03:08:08;;;;;;;19.60;8.70;;;;;;;11.26;74.46;98719.77;112312;1204;107530;-72
2021/08/28 03:10:43;;;;;;;18.40;8.40;;;;;;;11.26;74.46;98719.73;112284;1198;97626;-70
2021/08/28 03:13:11;;;;;;;20.90;10.30;;;;;;;11.27;74.49;98717.20;112318;1204;94949;-71
2021/08/28 03:15:46;;;;;;;18.20;8.50;;;;;;;11.26;74.45;98718.11;112267;1204;110953;-68
2021/08/28 03:18:21;;;;;;;19.60;9.10;;;;;;;11.27;74.57;98720.09;112284;1204;94948;-70
2021/08/28 03:20:56;;;;;;;17.50;8.30;;;;;;;11.27;74.54;98717.20;112326;1204;107158;-72
2021/08/28 03:23:34;;;;;;;17.60;8.80;;;;;;;11.27;74.61;98718.10;112316;1196;98042;-71
2021/08/28 03:26:06;;;;;;;17.80;8.50;;;;;;;11.28;74.67;98723.52;112306;1200;95706;-71
2021/08/28 03:28:38;;;;;;;18.00;8.90;;;;;;;11.29;74.73;98719.33;112310;1196;111196;-71
2021/08/28 03:31:11;;;;;;;18.70;8.80;;;;;;;11.29;74.70;98715.94;112287;1204;95395;-71
2021/08/28 03:33:43;;;;;;;17.50;8.50;;;;;;;11.26;74.58;98716.43;112215;1204;106504;-71
2021/08/28 03:36:11;;;;;;;17.50;8.70;;;;;;;11.23;74.63;98722.33;112257;1198;97610;-71
2021/08/28 03:38:43;;;;;;;16.30;8.00;;;;;;;11.24;74.72;98728.65;112281;1195;96849;-71
2021/08/28 03:41:11;;;;;;;18.70;9.30;;;;;;;11.23;74.63;98726.91;112114;1204;109895;-70
2021/08/28 03:43:42;;;;;;;17.50;8.60;;;;;;;11.23;74.79;98727.61;112525;1196;97586;-71
2021/08/28 03:46:14;;;;;;;19.10;8.80;;;;;;;11.24;74.78;98728.95;112812;1196;107500;-71
2021/08/28 03:48:42;;;;;;;13.80;6.50;;;;;;;11.25;74.74;98732.63;112210;1196;97683;-71
2021/08/28 03:51:15;;;;;;;14.50;6.40;;;;;;;11.26;74.75;98733.27;112181;1196;98194;-72
2021/08/28 03:53:43;;;;;;;18.30;8.60;;;;;;;11.26;74.73;98732.58;112244;1200;111074;-71
2021/08/28 03:56:10;;;;;;;18.40;8.20;;;;;;;11.26;74.82;98734.16;112248;1204;97789;-69
2021/08/28 03:58:38;;;;;;;20.40;8.60;;;;;;;11.27;74.90;98734.27;112384;1204;107446;-70
2021/08/28 04:01:06;;;;;;;17.60;8.40;;;;;;;11.27;74.87;98732.63;112302;1197;97571;-71
2021/08/28 04:03:38;;;;;;;18.90;8.60;;;;;;;11.29;74.90;98738.35;112294;1204;96137;-70
2021/08/28 04:06:09;;;;;;;17.30;8.10;;;;;;;11.31;75.00;98738.49;112837;1196;111161;-71
2021/08/28 04:08:37;;;;;;;15.90;8.50;;;;;;;11.32;74.95;98741.31;112323;1198;97673;-71
2021/08/28 04:11:05;;;;;;;17.40;8.40;;;;;;;11.33;74.92;98740.16;112321;1196;107464;-71
2021/08/28 04:13:33;;;;;;;19.00;8.60;;;;;;;11.35;74.93;98740.92;112257;1204;97673;-71
2021/08/28 04:16:00;;;;;;;18.50;8.40;;;;;;;11.37;75.02;98744.67;112286;1203;97589;-73
2021/08/28 04:18:28;;;;;;;18.10;8.50;;;;;;;11.38;74.96;98751.11;112219;1204;111048;-73
2021/08/28 04:21:00;;;;;;;18.70;8.00;;;;;;;11.37;74.99;98753.49;112189;1200;97546;-73
2021/08/28 04:23:28;;;;;;;20.30;9.20;;;;;;;11.37;74.87;98753.73;112243;1204;107522;-71
2021/08/28 04:25:55;;;;;;;16.80;7.80;;;;;;;11.36;74.87;98751.83;112187;1196;98322;-72
2021/08/28 04:28:23;;;;;;;17.30;7.60;;;;;;;11.37;75.01;98749.64;112304;1197;97779;-71
2021/08/28 04:30:51;;;;;;;16.10;8.50;;;;;;;11.38;75.07;98750.39;112314;1198;111101;-73
2021/08/28 04:33:19;;;;;;;17.60;8.30;;;;;;;11.39;75.02;98750.33;112217;1204;95672;-73
2021/08/28 04:35:47;;;;;;;17.50;8.10;;;;;;;11.40;75.00;98750.39;112316;1204;107429;-71
2021/08/28 04:38:15;;;;;;;18.00;7.80;;;;;;;11.42;75.01;98750.81;112327;1204;97689;-71
2021/08/28 04:40:46;;;;;;;18.10;8.00;;;;;;;11.42;74.95;98751.63;112295;1197;95089;-72
2021/08/28 04:43:14;;;;;;;16.20;7.60;;;;;;;11.42;75.07;98752.23;112304;1196;111054;-72
2021/08/28 04:45:42;;;;;;;17.30;8.40;;;;;;;11.43;75.03;98755.81;112282;1204;97498;-71
2021/08/28 04:48:13;;;;;;;17.30;8.30;;;;;;;11.45;75.00;98758.89;112241;1196;107471;-71
2021/08/28 04:50:41;;;;;;;16.40;7.90;;;;;;;11.47;75.15;98752.99;112197;1196;98524;-72
2021/08/28 04:53:08;;;;;;;19.30;9.40;;;;;;;11.50;75.15;98752.67;112222;1198;97578;-71
2021/08/28 04:55:36;;;;;;;17.50;8.60;;;;;;;11.52;75.16;98751.61;112204;1204;111376;-71
2021/08/28 04:58:04;;;;;;;18.40;8.50;;;;;;;11.55;75.16;98753.86;112200;1204;97604;-71
2021/08/28 05:00:32;;;;;;;19.50;8.70;;;;;;;11.58;75.23;98754.81;112186;1196;107453;-72
2021/08/28 05:03:00;;;;;;;20.40;9.00;;;;;;;11.61;75.23;98756.66;112287;1198;97530;-71
2021/08/28 05:05:29;;;;;;;19.60;9.60;;;;;;;11.66;75.24;98761.25;112230;1198;95044;-72
2021/08/28 05:07:59;;;;;;;19.50;8.80;;;;;;;11.70;75.23;98763.25;112209;1204;112048;-71
2021/08/28 05:10:28;;;;;;;18.40;9.30;;;;;;;11.74;75.30;98762.24;112582;1204;96531;-72
2021/08/28 05:12:55;;;;;;;18.00;8.40;;;;;;;11.77;75.16;98760.54;112217;1196;106648;-73
2021/08/28 05:15:23;;;;;;;18.30;9.50;;;;;;;11.80;75.19;98762.95;112285;1204;97636;-72
2021/08/28 05:17:51;;;;;;;18.10;9.30;;;;;;;11.84;75.23;98767.96;112262;1198;97677;-72
2021/08/28 05:20:19;;;;;;;19.70;9.40;;;;;;;11.88;75.30;98768.15;112258;1203;111190;-73
2021/08/28 05:22:47;;;;;;;19.30;8.70;;;;;;;11.94;75.32;98769.84;112281;1204;97692;-72
2021/08/28 05:25:15;;;;;;;19.10;9.20;;;;;;;11.98;75.36;98767.39;112251;1203;107566;-70
2021/08/28 05:27:42;;;;;;;19.90;9.30;;;;;;;12.03;75.40;98767.00;112261;1199;97583;-75
2021/08/28 05:30:11;;;;;;;17.00;8.30;;;;;;;12.08;75.43;98766.98;112336;1196;97616;-73
2021/08/28 05:32:41;;;;;;;18.40;8.70;;;;;;;12.12;75.39;98763.98;112257;1204;111160;-74
2021/08/28 05:35:12;;;;;;;18.20;8.70;;;;;;;12.16;75.38;98767.34;112206;1204;97666;-74
2021/08/28 05:37:40;;;;;;;18.00;8.20;;;;;;;12.20;75.45;98768.06;112196;1197;107358;-71
2021/08/28 05:40:13;;;;;;;17.80;8.40;;;;;;;12.24;75.40;98769.31;112737;1196;97595;-76
2021/08/28 05:42:41;;;;;;;17.20;8.20;;;;;;;12.29;75.45;98773.23;112259;1196;97574;-72
2021/08/28 05:45:11;;;;;;;17.80;7.70;;;;;;;12.34;75.46;98778.43;112138;1204;111542;-76
2021/08/28 05:47:39;;;;;;;19.40;8.10;;;;;;;12.40;75.48;98784.88;112226;1203;95047;-76
2021/08/28 05:50:11;;;;;;;15.20;7.20;;;;;;;12.47;75.46;98785.84;112167;1204;107452;-76
2021/08/28 05:52:40;;;;;;;19.40;8.10;;;;;;;12.56;75.53;98788.91;112188;1196;97751;-72
2021/08/28 05:55:10;;;;;;;16.90;7.70;;;;;;;12.62;75.55;98787.64;112113;1200;97651;-75
2021/08/28 05:57:41;;;;;;;17.70;8.30;;;;;;;12.69;75.61;98790.40;112081;1200;111968;-74
2021/08/28 06:00:11;;;;;;;15.80;7.50;;;;;;;12.77;75.51;98791.02;112078;1197;97611;-75
2021/08/28 06:02:40;;;;;;;15.00;6.80;;;;;;;12.82;75.54;98791.65;112067;1198;106252;-71
2021/08/28 06:05:11;;;;;;;16.50;7.30;;;;;;;12.90;75.52;98788.84;113211;1196;97547;-72
2021/08/28 06:07:39;;;;;;;14.80;6.80;;;;;;;12.97;75.53;98791.99;112217;1204;97746;-71
2021/08/28 06:10:11;;;;;;;15.00;6.00;;;;;;;13.03;75.47;98791.40;112307;1203;111007;-70
2021/08/28 06:12:38;;;;;;;14.50;6.30;;;;;;;13.10;75.41;98788.50;112299;1204;97580;-71
2021/08/28 06:15:09;;;;;;;12.10;5.40;;;;;;;13.17;75.47;98790.98;112307;1196;107120;-70
2021/08/28 06:17:37;;;;;;;15.50;5.20;;;;;;;13.24;75.48;98796.67;112252;1204;97642;-72
2021/08/28 06:20:09;;;;;;;13.50;5.50;;;;;;;13.30;75.42;98794.08;112323;1197;97685;-70
2021/08/28 06:22:37;;;;;;;13.40;5.60;;;;;;;13.36;75.37;98796.55;112233;1203;110989;-73
2021/08/28 06:25:05;;;;;;;16.30;6.20;;;;;;;13.40;75.37;98792.27;112279;1204;97586;-73
2021/08/28 06:27:33;;;;;;;14.20;5.50;;;;;;;13.43;75.30;98791.88;112282;1196;107028;-76
2021/08/28 06:30:01;;;;;;;12.20;5.10;;;;;;;13.44;75.27;98788.73;112305;1199;97717;-70
2021/08/28 06:32:28;;;;;;;9.30;5.30;;;;;;;13.46;75.21;98786.99;112335;1202;97591;-82
2021/08/28 06:34:56;;;;;;;11.50;5.30;;;;;;;13.49;75.29;98790.28;112272;1204;111570;-77
2021/08/28 06:37:24;;;;;;;9.60;4.90;;;;;;;13.53;75.24;98792.44;112259;1196;97595;-76
2021/08/28 06:39:52;;;;;;;12.20;5.60;;;;;;;13.56;75.39;98793.03;112172;1204;106684;-78
2021/08/28 06:42:19;;;;;;;10.00;5.00;;;;;;;13.61;75.29;98791.77;112186;1204;97703;-82
2021/08/28 06:44:47;;;;;;;8.90;4.80;;;;;;;13.64;75.27;98792.71;112375;1196;97739;-76
2021/08/28 06:47:15;;;;;;;13.10;6.00;;;;;;;13.70;75.31;98793.60;112266;1196;109880;-73
2021/08/28 06:49:43;;;;;;;12.00;6.10;;;;;;;13.77;75.28;98796.55;112209;1204;97701;-72
2021/08/28 06:52:14;;;;;;;12.90;5.50;;;;;;;13.82;75.20;98793.38;112257;1203;107701;-71
2021/08/28 06:54:42;;;;;;;12.30;5.60;;;;;;;13.89;75.16;98797.27;112300;1196;97679;-71
2021/08/28 06:57:10;;;;;;;11.30;5.10;;;;;;;13.95;75.18;98795.94;112343;1195;97647;-71
2021/08/28 06:59:38;;;;;;;11.50;5.20;;;;;;;14.03;75.13;98797.52;112255;1203;111148;-72
2021/08/28 07:02:09;;;;;;;11.50;5.20;;;;;;;14.15;75.11;98792.42;112244;1203;95215;-71
2021/08/28 07:04:37;;;;;;;12.50;5.50;;;;;;;14.24;75.09;98791.23;112206;1204;107445;-72
2021/08/28 07:07:05;;;;;;;11.30;5.20;;;;;;;14.32;75.09;98792.09;112251;1204;94946;-70
2021/08/28 07:09:33;;;;;;;11.10;5.20;;;;;;;14.40;75.09;98793.14;112316;1196;99206;-71
2021/08/28 07:12:01;;;;;;;10.00;5.00;;;;;;;14.52;75.17;98795.63;112255;1203;111134;-70
2021/08/28 07:14:31;;;;;;;12.50;5.60;;;;;;;14.64;75.16;98795.73;112282;1203;95046;-73
2021/08/28 07:16:59;;;;;;;10.50;5.30;;;;;;;14.75;75.10;98792.89;112296;1203;107421;-75
2021/08/28 07:19:30;;;;;;;11.10;5.20;;;;;;;14.88;75.14;98792.80;112261;1204;97659;-75
2021/08/28 07:21:58;;;;;;;12.00;5.20;;;;;;;15.04;75.06;98794.88;112182;1196;97540;-76
2021/08/28 07:24:26;;;;;;;9.30;4.80;;;;;;;15.56;74.31;98795.20;112086;1197;110980;-75
2021/08/28 07:26:54;;;;;;;8.80;4.10;;;;;;;16.71;72.60;98787.95;112314;1196;97559;-73
2021/08/28 07:29:25;;;;;;;7.30;4.10;;;;;;;17.85;71.55;98785.38;112221;1204;108625;-74
2021/08/28 07:31:53;;;;;;;7.60;4.10;;;;;;;19.26;70.44;98776.02;112203;1203;96853;-73
2021/08/28 07:34:21;;;;;;;7.30;3.70;;;;;;;20.69;69.91;98775.95;112288;1204;97539;-75
2021/08/28 07:36:49;;;;;;;7.60;3.90;;;;;;;21.95;69.55;98776.42;112267;1197;111459;-74
2021/08/28 07:39:17;;;;;;;11.70;3.90;;;;;;;23.12;69.09;98772.73;112216;1197;98360;-74
2021/08/28 07:41:45;;;;;;;7.50;4.00;;;;;;;24.30;68.58;98771.77;112251;1196;106692;-77
2021/08/28 07:44:12;;;;;;;9.80;3.80;;;;;;;25.39;68.18;98771.63;112217;1204;97592;-80
2021/08/28 07:46:40;;;;;;;8.70;3.50;;;;;;;26.40;67.69;98771.94;112216;1203;97654;-77
2021/08/28 07:49:08;;;;;;;7.20;3.90;;;;;;;27.35;68.06;98772.85;112203;1197;111131;-79
2021/08/28 07:51:36;;;;;;;6.60;3.60;;;;;;;28.19;67.70;98770.48;112263;1197;98025;-78
2021/08/28 07:54:04;;;;;;;7.20;3.90;;;;;;;28.76;67.51;98770.41;112228;1198;107513;-72
2021/08/28 07:56:33;;;;;;;7.40;3.80;;;;;;;29.16;66.58;98769.52;112275;1203;97804;-77
2021/08/28 07:59:02;;;;;;;4.40;3.20;;;;;;;29.68;66.51;98768.38;112406;1197;97766;-79
2021/08/28 08:01:30;;;;;;;6.00;3.00;;;;;;;30.51;66.61;98774.35;112364;1204;102498;-77
2021/08/28 08:04:02;;;;;;;5.70;3.60;;;;;;;30.90;65.66;98777.71;112314;1196;97672;-76
2021/08/28 08:06:29;;;;;;;8.60;3.90;;;;;;;31.05;65.13;98776.76;113886;1196;99250;-71
2021/08/28 08:08:57;;;;;;;4.50;3.00;;;;;;;31.56;65.60;98780.45;113907;1195;96872;-72
2021/08/28 08:11:25;;;;;;;6.50;3.20;;;;;;;32.17;65.54;98784.89;113850;1196;95416;-77
2021/08/28 08:13:53;;;;;;;10.10;4.10;;;;;;;32.58;65.01;98782.29;112204;1198;102623;-77
2021/08/28 08:16:21;;;;;;;3.90;2.70;;;;;;;32.83;64.48;98781.92;112588;1196;98069;-75
2021/08/28 08:18:50;;;;;;;4.90;3.40;;;;;;;32.70;63.77;98776.77;112203;1203;98830;-76
2021/08/28 08:21:21;;;;;;;5.50;3.10;;;;;;;32.39;63.54;98778.73;112783;1195;97670;-78
2021/08/28 08:23:49;;;;;;;4.90;3.20;;;;;;;32.55;63.66;98779.13;112306;1195;97548;-78
2021/08/28 08:26:17;;;;;;;6.20;2.60;;;;;;;32.94;62.99;98781.95;112858;1195;102952;-79
2021/08/28 08:28:45;;;;;;;6.70;3.20;;;;;;;32.89;62.53;98776.80;112405;1196;96530;-80
2021/08/28 08:31:13;;;;;;;4.90;3.10;;;;;;;32.79;62.20;98770.22;112666;1195;99253;-79
2021/08/28 08:33:41;;;;;;;6.40;3.00;;;;;;;32.71;62.10;98768.02;112291;1203;97572;-80
2021/08/28 08:36:09;;;;;;;3.30;3.00;;;;;;;32.57;61.72;98768.52;112263;1197;96241;-79
2021/08/28 08:38:37;;;;;;;5.60;2.90;;;;;;;32.21;61.03;98762.05;112324;1203;102487;-73
2021/08/28 08:41:05;;;;;;;5.20;2.80;;;;;;;32.16;61.28;98766.35;112428;1195;96649;-74
2021/08/28 08:43:37;;;;;;;3.50;2.70;;;;;;;32.07;60.41;98762.70;112453;1195;98874;-72
2021/08/28 08:46:08;;;;;;;4.60;2.80;;;;;;;32.10;59.79;98764.86;112417;1195;97577;-78
2021/08/28 08:48:39;;;;;;;4.80;2.50;;;;;;;32.26;60.05;98760.12;112341;1196;97672;-71
2021/08/28 08:51:11;;;;;;;4.10;2.70;;;;;;;32.31;59.47;98763.75;112364;1203;102470;-69
2021/08/28 08:53:43;;;;;;;5.20;2.80;;;;;;;32.22;58.83;98767.88;112437;1202;97652;-70
2021/08/28 08:56:16;;;;;;;5.70;3.40;;;;;;;31.88;58.90;98764.25;112245;1203;98998;-72
2021/08/28 08:58:44;;;;;;;5.50;2.80;;;;;;;31.37;58.46;98770.09;112281;1196;95008;-72
2021/08/28 09:01:12;;;;;;;2.80;2.20;;;;;;;30.89;58.08;98776.38;112349;1197;97690;-78
2021/08/28 09:03:47;;;;;;;4.20;3.10;;;;;;;30.82;57.38;98776.55;112360;1203;102476;-75
2021/08/28 09:06:18;;;;;;;4.20;2.60;;;;;;;30.72;56.87;98774.48;112380;1203;94960;-74
2021/08/28 09:08:46;;;;;;;9.20;2.40;;;;;;;30.85;56.63;98775.78;112362;1203;98809;-75
2021/08/28 09:11:31;;;;;;;3.70;2.70;;;;;;;31.02;56.09;98779.75;112322;1196;97651;-76
2021/08/28 09:14:25;;;;;;;4.10;2.50;;;;;;;31.50;56.06;98777.45;112440;1203;97671;-76
2021/08/28 09:16:57;;;;;;;4.50;2.50;;;;;;;31.69;55.52;98778.35;112384;1202;102447;-77
2021/08/28 09:19:39;;;;;;;;;;;;;;;31.50;54.54;98775.87;112362;1203;97619;-76
2021/08/28 09:22:25;;;;;;;4.00;2.40;;;;;;;31.45;54.47;98772.90;112248;1204;107623;-76
2021/08/28 09:25:09;;;;;;;5.80;2.50;;;;;;;31.37;54.15;98770.83;112266;1198;97577;-73
2021/08/28 09:27:49;;;;;;;4.90;2.30;;;;;;;31.11;53.55;98768.92;112386;1196;94997;-74
2021/08/28 09:30:30;;;;;;;3.20;1.70;;;;;;;31.28;53.40;98774.30;112299;1198;101737;-73
2021/08/28 09:33:15;;;;;;;3.70;1.90;;;;;;;31.55;52.75;98776.04;112430;1203;97683;-74
2021/08/28 09:35:55;;;;;;;3.20;2.00;;;;;;;31.75;52.70;98785.66;112219;1195;98852;-74
2021/08/28 09:38:23;;;;;;;2.90;2.10;;;;;;;31.44;52.44;98791.09;112349;1196;97691;-74
2021/08/28 09:41:00;;;;;;;3.80;1.60;;;;;;;31.33;51.62;98789.73;112322;1196;97601;-75
2021/08/28 09:43:28;;;;;;;1.90;1.60;;;;;;;31.43;51.34;98788.91;112355;1203;102549;-75
2021/08/28 09:46:09;;;;;;;4.40;2.10;;;;;;;31.45;51.13;98789.02;112447;1203;97603;-73
2021/08/28 09:48:39;;;;;;;2.60;2.00;;;;;;;31.24;50.85;98791.77;112334;1195;98809;-75
2021/08/28 09:51:11;;;;;;;2.00;1.50;;;;;;;30.97;50.71;98796.03;112320;1195;97760;-74
2021/08/28 09:53:57;;;;;;;2.40;1.90;;;;;;;30.18;50.42;98800.51;112313;1196;97667;-74
2021/08/28 09:56:29;;;;;;;2.50;1.90;;;;;;;29.58;50.32;98795.37;112280;1203;102510;-75
2021/08/28 09:58:56;;;;;;;3.30;2.10;;;;;;;29.02;50.12;98788.73;112390;1203;96361;-73
2021/08/28 10:01:24;;;;;;;3.50;2.20;;;;;;;28.67;50.17;98791.39;112141;1203;107503;-73
2021/08/28 10:04:00;;;;;;;2.30;1.60;;;;;;;28.28;49.92;98793.91;112264;1203;97668;-74
2021/08/28 10:06:29;;;;;;;3.20;2.10;;;;;;;27.44;49.27;98800.10;112300;1196;95189;-74
2021/08/28 10:08:58;;;;;;;3.30;1.90;;;;;;;26.68;48.92;98802.30;112236;1196;111519;-71
2021/08/28 10:11:26;;;;;;;2.20;1.80;;;;;;;26.15;49.08;98806.10;112077;1203;97169;-74
2021/08/28 10:13:54;;;;;;;3.40;1.90;;;;;;;25.72;48.92;98810.38;112253;1198;107471;-76
2021/08/28 10:16:22;;;;;;;5.80;2.10;;;;;;;25.36;48.75;98809.25;112246;1203;97578;-78
2021/08/28 10:18:49;;;;;;;5.00;2.10;;;;;;;24.98;48.71;98810.44;112247;1195;97604;-77
2021/08/28 10:21:17;;;;;;;4.30;1.90;;;;;;;24.68;48.64;98810.95;112314;1195;111131;-79
2021/08/28 10:23:53;;;;;;;5.30;1.80;;;;;;;24.29;48.41;98807.03;112227;1197;97756;-78
2021/08/28 10:26:21;;;;;;;6.20;2.00;;;;;;;23.99;48.56;98808.57;112340;1203;107395;-79
2021/08/28 10:29:00;;;;;;;2.90;1.90;;;;;;;23.77;48.33;98809.95;112294;1196;96023;-77
2021/08/28 10:31:28;;;;;;;3.40;1.90;;;;;;;23.47;48.12;98808.39;112253;1196;97684;-77
2021/08/28 10:34:02;;;;;;;3.70;1.90;;;;;;;23.05;48.01;98813.17;112307;1195;111149;-76
2021/08/28 10:36:29;;;;;;;32.70;19.40;;;;;;;22.78;48.12;98812.25;112313;1195;97662;-77
2021/08/28 10:39:00;;;;;;;10.10;4.40;;;;;;;22.64;48.22;98810.77;112360;1203;107340;-76
2021/08/28 10:41:32;;;;;;;5.40;2.70;;;;;;;22.50;48.02;98810.20;112182;1204;97666;-78
2021/08/28 10:44:01;;;;;;;5.50;2.70;;;;;;;22.32;48.10;98803.46;112377;1196;97671;-78
2021/08/28 10:46:34;;;;;;;4.10;2.20;;;;;;;22.20;48.00;98800.73;112361;1203;111115;-77
2021/08/28 10:49:03;;;;;;;4.80;2.30;;;;;;;22.05;47.85;98802.74;112292;1203;97664;-76
2021/08/28 10:51:34;;;;;;;4.90;2.10;;;;;;;22.02;47.92;98800.09;112399;1203;107460;-76
2021/08/28 10:54:08;;;;;;;2.90;2.10;;;;;;;22.00;47.82;98802.23;112087;1197;95729;-80
2021/08/28 10:56:51;;;;;;;2.20;1.90;;;;;;;22.00;47.88;98798.08;112580;1198;95408;-77
2021/08/28 10:59:25;;;;;;;6.40;2.40;;;;;;;22.03;47.68;98792.14;113002;1195;111168;-78
2021/08/28 11:02:14;;;;;;;4.80;2.50;;;;;;;21.98;47.61;98791.73;112267;1197;95962;-78
2021/08/28 11:04:45;;;;;;;4.00;2.80;;;;;;;22.01;47.84;98788.30;112804;1197;107434;-78
2021/08/28 11:07:19;;;;;;;6.00;2.50;;;;;;;22.12;47.80;98786.41;112210;1203;95060;-78
2021/08/28 11:10:19;;;;;;;4.20;2.50;;;;;;;22.23;47.82;98784.84;112281;1197;97985;-77
2021/08/28 11:13:06;;;;;;;3.60;2.30;;;;;;;22.30;47.87;98784.95;112289;1203;111157;-77
2021/08/28 11:15:33;;;;;;;6.80;2.30;;;;;;;22.35;47.56;98785.90;112265;1203;95004;-79
2021/08/28 11:18:07;;;;;;;3.80;2.50;;;;;;;22.27;47.43;98782.79;112220;1196;107430;-77
2021/08/28 11:20:44;;;;;;;3.20;2.40;;;;;;;22.15;47.52;98784.33;112202;1195;97651;-79
2021/08/28 11:23:17;;;;;;;5.00;2.10;;;;;;;22.10;47.52;98788.17;112250;1204;97621;-79
2021/08/28 11:25:50;;;;;;;3.60;2.30;;;;;;;22.14;47.51;98793.27;112406;1197;111574;-78
2021/08/28 11:28:21;;;;;;;4.60;2.40;;;;;;;22.17;47.45;98791.38;112306;1196;97549;-78
2021/08/28 11:30:56;;;;;;;2.20;2.00;;;;;;;22.13;47.60;98793.12;112244;1204;108422;-78
2021/08/28 11:33:32;;;;;;;2.90;2.20;;;;;;;22.11;47.61;98792.27;112229;1197;95034;-78
2021/08/28 11:36:18;;;;;;;5.20;2.20;;;;;;;22.19;47.81;98790.76;112248;1195;96880;-79